Time;durP1;ratioP1;P1;durP2;ratioP2;P2;SDS_P1;SDS_P2;PMS_P1;PMS_P2;Temp;Humidity;BMP_temperature;BMP_pressure;BME280_temperature;BME280_humidity;BME280_pressure;Samples;Min_cycle;Max_cycle;Signal;HPM_P1;HPM_P2
2023/05/14 00:02:15;;;;;;;10.32;7.18;;;;;;;17.75;59.38;101815.97;5033093;28;20039;-65
2023/05/14 00:04:40;;;;;;;10.25;6.85;;;;;;;17.71;59.59;101812.38;5032966;28;20071;-65
2023/05/14 00:07:06;;;;;;;10.75;7.13;;;;;;;17.72;59.06;101810.59;5032720;28;20029;-65
2023/05/14 00:09:31;;;;;;;13.20;7.20;;;;;;;17.58;60.25;101805.31;5032914;28;20026;-65
2023/05/14 00:11:57;;;;;;;12.13;7.10;;;;;;;17.58;59.80;101807.09;5032633;28;20029;-64
2023/05/14 00:14:22;;;;;;;12.55;6.93;;;;;;;17.52;60.01;101803.53;5015123;28;20488;-65
2023/05/14 00:16:48;;;;;;;9.55;6.53;;;;;;;17.46;60.18;101802.66;5032611;28;20115;-65
2023/05/14 00:19:14;;;;;;;12.82;7.25;;;;;;;17.38;60.37;101801.78;5032578;28;20071;-66
2023/05/14 00:21:39;;;;;;;13.07;7.07;;;;;;;17.41;60.37;101800.00;5032888;28;20394;-65
2023/05/14 00:24:05;;;;;;;11.77;7.00;;;;;;;17.27;60.75;101796.47;5032447;28;20391;-65
2023/05/14 00:26:30;;;;;;;9.68;7.40;;;;;;;17.18;61.49;101793.81;5032471;28;20057;-66
2023/05/14 00:28:56;;;;;;;8.65;7.18;;;;;;;17.12;61.37;101788.47;5032635;28;20108;-65
2023/05/14 00:31:21;;;;;;;11.63;7.15;;;;;;;17.08;61.92;101800.03;5032474;28;20021;-66
2023/05/14 00:33:46;;;;;;;9.90;7.28;;;;;;;17.01;61.53;101801.84;5032541;28;20095;-65
2023/05/14 00:36:12;;;;;;;10.75;6.85;;;;;;;17.00;62.28;101792.94;5032419;28;20029;-66
2023/05/14 00:38:37;;;;;;;12.52;7.75;;;;;;;16.91;62.06;101800.03;5032572;28;20071;-66
2023/05/14 00:41:02;;;;;;;11.05;7.38;;;;;;;16.87;62.24;101792.94;5032418;28;20037;-66
2023/05/14 00:43:28;;;;;;;12.13;7.82;;;;;;;16.78;62.93;101792.03;5014508;28;20075;-65
2023/05/14 00:45:54;;;;;;;10.98;8.18;;;;;;;16.65;63.15;101787.53;5032346;28;20074;-65
2023/05/14 00:48:20;;;;;;;9.98;7.43;;;;;;;16.57;63.54;101783.97;5033958;28;20030;-66
2023/05/14 00:50:48;;;;;;;11.25;7.95;;;;;;;16.56;63.57;101781.31;5035831;28;20052;-66
2023/05/14 00:53:13;;;;;;;14.18;8.23;;;;;;;16.51;63.68;101776.88;5035840;28;20053;-66
2023/05/14 00:55:40;;;;;;;11.52;8.00;;;;;;;16.55;63.67;101777.75;5035664;28;20471;-66
2023/05/14 00:58:10;;;;;;;12.98;8.10;;;;;;;16.44;64.19;101775.06;5036085;28;20041;-66
2023/05/14 01:00:37;;;;;;;14.07;8.43;;;;;;;16.45;64.02;101776.00;5035752;28;20553;-66
2023/05/14 01:03:03;;;;;;;10.20;8.40;;;;;;;16.47;64.04;101779.53;5035765;28;20475;-67
2023/05/14 01:05:42;;;;;;;16.00;8.65;;;;;;;16.40;64.36;101775.06;5018023;28;20030;-66
2023/05/14 01:08:25;;;;;;;9.75;8.52;;;;;;;16.45;64.37;101778.66;5035710;28;20029;-66
2023/05/14 01:10:56;;;;;;;15.00;8.82;;;;;;;16.39;64.82;101781.28;5035516;28;20442;-66
2023/05/14 01:13:36;;;;;;;11.20;8.50;;;;;;;16.35;65.37;101775.06;5035404;28;20040;-65
2023/05/14 01:16:03;;;;;;;11.02;8.25;;;;;;;16.30;65.27;101779.50;5035766;28;20144;-65
2023/05/14 01:18:31;;;;;;;10.90;9.25;;;;;;;16.27;65.38;101779.47;5035692;28;20112;-66
2023/05/14 01:20:56;;;;;;;16.45;9.10;;;;;;;16.16;65.95;101787.47;5035395;28;20030;-65
2023/05/14 01:23:22;;;;;;;16.27;9.27;;;;;;;16.03;66.56;101772.34;5035243;28;20039;-66
2023/05/14 01:25:48;;;;;;;14.10;9.30;;;;;;;15.94;66.77;101775.84;5035496;28;20029;-66
2023/05/14 01:28:18;;;;;;;14.50;9.57;;;;;;;15.86;67.49;101776.72;5035174;28;20033;-66
2023/05/14 01:31:01;;;;;;;13.10;9.30;;;;;;;15.85;67.20;101773.16;5035148;28;20064;-66
2023/05/14 01:33:28;;;;;;;12.57;9.40;;;;;;;15.86;67.22;101772.28;5035280;28;20150;-66
2023/05/14 01:35:54;;;;;;;16.05;8.90;;;;;;;15.89;67.34;101766.06;5035344;28;20076;-66
2023/05/14 01:38:22;;;;;;;15.68;9.32;;;;;;;15.88;67.34;101773.16;5035355;28;20030;-66
2023/05/14 01:40:49;;;;;;;13.80;9.57;;;;;;;15.74;67.70;101764.22;5034924;28;20033;-66
2023/05/14 01:43:15;;;;;;;13.27;9.18;;;;;;;15.82;66.85;101769.59;5034974;28;20029;-66
2023/05/14 01:45:41;;;;;;;12.07;9.20;;;;;;;15.73;67.74;101763.34;5035104;28;20093;-66
2023/05/14 01:48:07;;;;;;;16.35;9.68;;;;;;;15.78;67.53;101763.34;5035930;28;20029;-66
2023/05/14 01:50:32;;;;;;;15.40;9.43;;;;;;;15.76;67.86;101771.34;5035467;28;20049;-66
2023/05/14 01:52:57;;;;;;;12.57;9.00;;;;;;;15.74;67.81;101765.09;5035514;28;20116;-67
2023/05/14 01:55:26;;;;;;;11.93;9.65;;;;;;;15.62;68.03;101770.34;5035329;28;20067;-67
2023/05/14 01:57:52;;;;;;;15.18;9.88;;;;;;;15.50;69.21;101765.88;5034682;28;20559;-65
2023/05/14 02:00:18;;;;;;;13.57;9.45;;;;;;;15.45;69.75;101766.69;5016106;28;20029;-66
2023/05/14 02:02:43;;;;;;;19.20;9.77;;;;;;;15.40;69.32;101761.34;5034750;28;20057;-65
2023/05/14 02:05:12;;;;;;;13.05;9.98;;;;;;;15.42;69.07;101764.94;5035064;28;20057;-67
2023/05/14 02:07:38;;;;;;;11.90;9.90;;;;;;;15.42;69.11;101750.72;5034823;28;20518;-66
2023/05/14 02:10:03;;;;;;;14.77;10.45;;;;;;;15.33;69.55;101753.31;5034599;28;20080;-66
2023/05/14 02:12:29;;;;;;;15.70;10.20;;;;;;;15.30;69.78;101762.19;5034434;28;20379;-66
2023/05/14 02:14:54;;;;;;;15.70;10.20;;;;;;;15.23;70.34;101755.94;5034385;28;20383;-66
2023/05/14 02:17:20;;;;;;;15.98;10.70;;;;;;;15.28;69.78;101747.97;5034526;28;20104;-66
2023/05/14 02:19:45;;;;;;;13.10;10.48;;;;;;;15.17;69.93;101747.91;5034302;28;20463;-67
2023/05/14 02:22:11;;;;;;;15.45;10.38;;;;;;;15.26;69.59;101747.97;5034407;28;20040;-66
2023/05/14 02:24:37;;;;;;;12.48;10.18;;;;;;;15.19;69.73;101748.78;5034515;28;20033;-66
2023/05/14 02:27:02;;;;;;;11.70;10.30;;;;;;;15.18;70.05;101752.34;5034189;28;20549;-66
2023/05/14 02:29:28;;;;;;;14.23;10.93;;;;;;;15.14;70.26;101752.31;5034217;28;20104;-66
2023/05/14 02:31:54;;;;;;;13.50;10.77;;;;;;;15.07;70.75;101755.81;5034424;28;20023;-66
2023/05/14 02:34:20;;;;;;;12.98;10.45;;;;;;;15.14;70.65;101752.31;5042277;28;20035;-66
2023/05/14 02:36:45;;;;;;;14.55;10.90;;;;;;;15.02;71.33;101747.78;5053851;28;20029;-66
2023/05/14 02:39:10;;;;;;;17.92;11.25;;;;;;;15.04;70.96;101751.38;5053942;28;20060;-66
2023/05/14 02:41:36;;;;;;;22.73;11.38;;;;;;;14.96;71.41;101748.66;5053549;28;20037;-66
2023/05/14 02:44:01;;;;;;;15.15;11.15;;;;;;;15.04;70.85;101751.38;5053940;28;20028;-66
2023/05/14 02:46:26;;;;;;;15.77;10.88;;;;;;;15.00;71.51;101746.91;5053704;28;20121;-66
2023/05/14 02:48:52;;;;;;;13.50;11.23;;;;;;;14.95;71.40;101752.22;5053300;28;20028;-67
2023/05/14 02:51:19;;;;;;;14.45;11.88;;;;;;;14.96;71.63;101750.44;5053673;28;20041;-67
2023/05/14 02:53:45;;;;;;;12.48;9.88;;;;;;;15.02;71.61;101746.03;5053840;28;20021;-67
2023/05/14 02:56:10;;;;;;;17.98;11.63;;;;;;;14.96;71.55;101747.78;5053315;28;20074;-66
2023/05/14 02:58:35;;;;;;;16.70;11.52;;;;;;;14.91;71.72;101749.50;5053537;28;20025;-67
2023/05/14 03:01:01;;;;;;;14.55;11.88;;;;;;;14.78;72.43;101746.75;5053426;28;20045;-66
2023/05/14 03:03:28;;;;;;;17.38;11.88;;;;;;;14.70;72.48;101758.22;5053478;28;20021;-66
2023/05/14 03:05:53;;;;;;;16.90;11.07;;;;;;;14.75;72.47;101746.72;5053374;28;20043;-66
2023/05/14 03:08:19;;;;;;;17.85;12.10;;;;;;;14.69;72.61;101753.78;5035408;28;20029;-66
2023/05/14 03:10:44;;;;;;;14.45;12.27;;;;;;;14.66;72.85;101751.97;5053428;28;20031;-66
2023/05/14 03:13:10;;;;;;;14.00;11.73;;;;;;;14.62;73.04;101751.94;5053311;28;20061;-66
2023/05/14 03:15:35;;;;;;;18.30;12.30;;;;;;;14.52;73.15;101745.66;5053139;28;20048;-66
2023/05/14 03:18:01;;;;;;;17.08;12.50;;;;;;;14.51;73.46;101743.84;5053143;28;20112;-66
2023/05/14 03:20:26;;;;;;;17.17;11.88;;;;;;;14.59;72.78;101741.25;5053181;28;20052;-66
2023/05/14 03:22:52;;;;;;;16.23;11.65;;;;;;;14.57;72.91;101743.03;5053135;28;20485;-67
2023/05/14 03:25:17;;;;;;;14.35;11.55;;;;;;;14.54;73.23;101733.25;5053092;28;20021;-67
2023/05/14 03:27:43;;;;;;;17.70;12.25;;;;;;;14.56;72.85;101726.19;5053290;28;20356;-66
2023/05/14 03:30:09;;;;;;;17.85;11.85;;;;;;;14.58;72.63;101735.06;5053047;28;20492;-66
2023/05/14 03:32:36;;;;;;;17.20;11.02;;;;;;;14.67;73.01;101731.56;5053062;28;20367;-67
2023/05/14 03:35:01;;;;;;;19.98;12.27;;;;;;;14.63;72.77;101720.00;5053227;28;20033;-66
2023/05/14 03:37:27;;;;;;;17.90;13.15;;;;;;;14.62;72.69;101728.00;5052868;28;20475;-66
2023/05/14 03:39:52;;;;;;;15.85;12.23;;;;;;;14.51;73.20;101730.53;5052984;28;20108;-67
2023/05/14 03:42:18;;;;;;;16.95;13.20;;;;;;;14.49;73.30;101727.00;5052946;28;20032;-66
2023/05/14 03:44:43;;;;;;;21.27;12.95;;;;;;;14.41;73.80;101731.31;5053079;28;20029;-66
2023/05/14 03:47:09;;;;;;;16.17;12.73;;;;;;;14.36;74.15;101741.03;5053020;28;20544;-66
2023/05/14 03:49:34;;;;;;;18.20;13.52;;;;;;;14.30;74.23;101741.84;5052673;28;20049;-66
2023/05/14 03:52:00;;;;;;;15.43;12.85;;;;;;;14.31;74.25;101729.47;5052822;28;20074;-67
2023/05/14 03:54:25;;;;;;;19.35;13.63;;;;;;;14.25;74.37;101740.91;5052979;28;20021;-67
2023/05/14 03:56:50;;;;;;;17.67;13.73;;;;;;;14.18;74.74;101741.75;5035199;28;20032;-66
2023/05/14 03:59:16;;;;;;;17.42;13.77;;;;;;;14.14;75.19;101737.28;5052752;28;20447;-66
2023/05/14 04:01:43;;;;;;;18.23;13.55;;;;;;;14.14;75.24;101735.50;5053021;28;20055;-66
2023/05/14 04:04:08;;;;;;;17.35;13.98;;;;;;;14.09;75.29;101736.31;5052903;28;20091;-66
2023/05/14 04:06:33;;;;;;;19.08;14.07;;;;;;;14.03;75.80;101731.81;5052733;28;20029;-66
2023/05/14 04:08:59;;;;;;;17.60;14.13;;;;;;;13.97;75.95;101732.66;5052937;28;20434;-67
2023/05/14 04:11:24;;;;;;;23.30;14.23;;;;;;;13.97;76.03;101730.00;5052542;28;20029;-67
2023/05/14 04:13:50;;;;;;;19.17;14.20;;;;;;;13.95;76.04;101731.72;5052718;28;20029;-66
2023/05/14 04:16:15;;;;;;;18.52;14.15;;;;;;;13.97;76.47;101721.13;5052775;28;20120;-66
2023/05/14 04:18:40;;;;;;;22.05;14.40;;;;;;;13.93;76.32;101727.28;5052548;28;20399;-66
2023/05/14 04:21:06;;;;;;;19.60;14.73;;;;;;;13.93;76.42;101728.19;5034720;28;20036;-66
2023/05/14 04:23:31;;;;;;;18.60;13.93;;;;;;;13.94;76.46;101726.41;5054651;28;20032;-67
2023/05/14 04:25:57;;;;;;;25.05;14.73;;;;;;;13.96;76.04;101725.56;5056535;28;20040;-67
2023/05/14 04:28:23;;;;;;;20.45;14.32;;;;;;;13.95;76.47;101733.50;5056519;28;20060;-66
2023/05/14 04:30:48;;;;;;;19.27;14.40;;;;;;;14.05;76.38;101730.09;5056346;28;20126;-66
2023/05/14 04:33:14;;;;;;;20.38;14.88;;;;;;;13.99;76.53;101725.56;5056346;28;20036;-66
2023/05/14 04:35:40;;;;;;;18.58;14.52;;;;;;;14.05;76.38;101724.78;5056419;28;20087;-66
2023/05/14 04:38:05;;;;;;;21.02;14.48;;;;;;;13.96;76.78;101730.88;5056225;28;20033;-66
2023/05/14 04:40:30;;;;;;;20.23;15.20;;;;;;;13.91;77.27;101729.03;5056206;28;20039;-66
2023/05/14 04:42:56;;;;;;;22.92;15.23;;;;;;;13.88;77.35;101723.69;5055760;28;20025;-67
2023/05/14 04:45:22;;;;;;;21.38;15.07;;;;;;;13.83;77.72;101725.38;5038597;28;20036;-66
2023/05/14 04:47:48;;;;;;;19.77;14.95;;;;;;;13.82;78.07;101723.63;5055998;28;20490;-66
2023/05/14 04:50:13;;;;;;;20.10;15.43;;;;;;;13.78;78.01;101726.22;5055815;28;20056;-66
2023/05/14 04:52:38;;;;;;;22.10;15.13;;;;;;;13.76;78.38;101721.78;5037985;28;20471;-66
2023/05/14 04:55:05;;;;;;;19.85;15.43;;;;;;;13.74;78.61;101727.06;5055938;28;20028;-67
2023/05/14 04:57:30;;;;;;;18.30;14.57;;;;;;;13.73;78.53;101725.28;5055706;28;20116;-67
2023/05/14 04:59:55;;;;;;;22.75;15.93;;;;;;;13.73;78.78;101727.94;5055966;28;20021;-66
2023/05/14 05:02:21;;;;;;;19.63;15.43;;;;;;;13.78;78.55;101731.53;5055732;28;20032;-66
2023/05/14 05:04:46;;;;;;;20.67;14.98;;;;;;;13.83;78.98;101731.59;5055817;28;20044;-66
2023/05/14 05:07:12;;;;;;;19.00;14.00;;;;;;;13.92;79.66;101730.84;5055733;28;20036;-66
2023/05/14 05:09:38;;;;;;;19.02;14.80;;;;;;;13.94;79.01;101734.38;5055854;28;20102;-66
2023/05/14 05:12:04;;;;;;;21.50;16.23;;;;;;;13.99;78.57;101743.28;5055535;28;20493;-67
2023/05/14 05:14:29;;;;;;;19.85;14.63;;;;;;;14.03;78.18;101742.44;5055840;28;20087;-67
2023/05/14 05:16:55;;;;;;;23.15;14.73;;;;;;;14.02;78.64;101741.56;5055544;28;20025;-66
2023/05/14 05:19:20;;;;;;;22.08;15.02;;;;;;;13.96;78.45;101749.47;5055345;28;20138;-66
2023/05/14 05:21:45;;;;;;;21.55;15.02;;;;;;;13.96;78.92;101749.47;5055407;28;20031;-66
2023/05/14 05:24:12;;;;;;;20.77;14.77;;;;;;;13.98;78.88;101750.38;5055280;28;20033;-66
2023/05/14 05:26:37;;;;;;;19.98;14.82;;;;;;;14.12;78.70;101752.28;5055229;28;20099;-67
2023/05/14 05:29:04;;;;;;;22.08;14.82;;;;;;;14.34;77.89;101748.97;5055263;28;20021;-67
2023/05/14 05:31:30;;;;;;;19.95;14.63;;;;;;;14.42;77.53;101752.59;5055253;28;20108;-66
2023/05/14 05:33:56;;;;;;;20.38;14.48;;;;;;;14.58;77.07;101750.13;5054656;28;20021;-66
2023/05/14 05:36:21;;;;;;;20.63;15.02;;;;;;;14.70;77.08;101747.56;5054560;28;20025;-66
2023/05/14 05:38:47;;;;;;;19.55;14.48;;;;;;;14.82;76.39;101746.75;5055155;28;20112;-66
2023/05/14 05:41:12;;;;;;;23.00;14.20;;;;;;;14.99;76.25;101747.81;5054937;28;20044;-66
2023/05/14 05:43:37;;;;;;;18.90;14.63;;;;;;;15.17;76.24;101749.69;5054768;28;20064;-67
2023/05/14 05:46:03;;;;;;;17.70;14.05;;;;;;;15.32;75.02;101739.09;5055014;28;20025;-68
2023/05/14 05:48:28;;;;;;;17.45;13.98;;;;;;;15.31;74.73;101744.44;5055127;28;20048;-66
2023/05/14 05:50:54;;;;;;;18.33;14.40;;;;;;;15.37;74.34;101742.69;5054463;28;20041;-66
2023/05/14 05:53:19;;;;;;;18.25;14.10;;;;;;;15.44;74.32;101744.50;5054802;28;20037;-66
2023/05/14 05:55:44;;;;;;;21.10;14.57;;;;;;;15.41;74.33;101747.16;5054603;28;20071;-66
2023/05/14 05:58:10;;;;;;;20.70;14.38;;;;;;;15.48;74.63;101751.63;5036906;28;20032;-66
2023/05/14 06:00:35;;;;;;;19.17;12.55;;;;;;;15.61;73.64;101755.25;5054791;28;20029;-67
2023/05/14 06:03:01;;;;;;;17.25;13.50;;;;;;;15.54;73.97;101753.44;5054613;28;20021;-66
2023/05/14 06:05:26;;;;;;;19.27;13.75;;;;;;;15.59;73.72;101751.69;5054522;28;20021;-66
2023/05/14 06:07:52;;;;;;;19.25;13.98;;;;;;;15.58;73.96;101757.88;5054612;28;20028;-66
2023/05/14 06:10:18;;;;;;;19.73;14.05;;;;;;;15.68;74.23;101765.09;5054778;28;20040;-66
2023/05/14 06:12:43;;;;;;;24.00;13.70;;;;;;;15.71;73.20;101761.53;5054169;28;20032;-66
2023/05/14 06:15:10;;;;;;;19.10;14.25;;;;;;;15.75;73.54;101766.00;5054523;28;20032;-67
2023/05/14 06:17:36;;;;;;;19.70;14.38;;;;;;;15.94;73.55;101761.66;5054167;28;20036;-66
2023/05/14 06:20:02;;;;;;;19.90;14.48;;;;;;;16.19;73.02;101760.81;5054279;28;20021;-66
2023/05/14 06:22:27;;;;;;;19.73;13.68;;;;;;;16.43;72.00;101770.63;5054309;28;20033;-66
2023/05/14 06:24:52;;;;;;;18.50;14.23;;;;;;;16.58;71.23;101767.09;5054183;28;20048;-66
2023/05/14 06:27:18;;;;;;;19.38;13.15;;;;;;;16.88;69.86;101778.72;5053977;28;20025;-66
2023/05/14 06:29:43;;;;;;;17.85;12.85;;;;;;;17.17;69.94;101768.91;5054103;28;20035;-66
2023/05/14 06:32:09;;;;;;;21.42;13.55;;;;;;;17.49;68.85;101767.91;5054072;28;20102;-66
2023/05/14 06:34:34;;;;;;;16.63;12.38;;;;;;;17.79;66.49;101774.97;5054234;28;20398;-65
2023/05/14 06:37:02;;;;;;;17.38;12.88;;;;;;;17.99;66.36;101781.13;5054160;28;20390;-66
2023/05/14 06:39:27;;;;;;;21.55;13.45;;;;;;;18.22;65.20;101774.75;5054169;28;20433;-65
2023/05/14 06:41:53;;;;;;;19.00;12.68;;;;;;;18.40;64.64;101768.38;5053623;28;20539;-66
2023/05/14 06:44:18;;;;;;;16.58;11.57;;;;;;;18.45;63.70;101767.44;5036006;28;20108;-66
2023/05/14 06:46:44;;;;;;;18.80;12.95;;;;;;;18.32;64.34;101763.09;5035884;28;20524;-66
2023/05/14 06:49:09;;;;;;;18.88;12.77;;;;;;;18.12;63.89;101770.38;5053946;28;20022;-67
2023/05/14 06:51:34;;;;;;;17.98;13.20;;;;;;;18.02;64.17;101764.16;5053324;28;20056;-66
2023/05/14 06:54:00;;;;;;;18.98;12.65;;;;;;;18.02;64.20;101766.81;5053881;28;20512;-66
2023/05/14 06:56:25;;;;;;;17.67;12.88;;;;;;;18.15;64.25;101762.31;5053382;28;20496;-65
2023/05/14 06:58:51;;;;;;;18.95;12.55;;;;;;;18.45;63.10;101755.84;5053724;28;20187;-66
2023/05/14 07:01:16;;;;;;;19.63;12.13;;;;;;;18.48;62.44;101759.41;5053514;28;20071;-66
2023/05/14 07:03:41;;;;;;;17.33;12.35;;;;;;;18.58;62.35;101759.34;5053410;28;20025;-67
2023/05/14 07:06:07;;;;;;;17.42;12.40;;;;;;;18.86;62.12;101760.94;5053664;28;20095;-66
2023/05/14 07:08:32;;;;;;;16.98;12.70;;;;;;;19.05;61.08;101755.38;5053411;28;20386;-66
2023/05/14 07:10:58;;;;;;;17.95;12.27;;;;;;;19.19;61.25;101762.41;5053504;28;20474;-66
2023/05/14 07:13:25;;;;;;;18.90;12.73;;;;;;;19.32;59.94;101755.13;5053058;28;20548;-66
2023/05/14 07:15:51;;;;;;;20.13;13.13;;;;;;;19.42;61.39;101755.91;5035566;28;20052;-66
2023/05/14 07:18:17;;;;;;;16.42;12.57;;;;;;;19.58;60.26;101756.63;5053288;28;20082;-66
2023/05/14 07:20:42;;;;;;;18.02;12.85;;;;;;;19.71;60.20;101756.47;5053235;28;20025;-65
2023/05/14 07:23:08;;;;;;;20.77;12.70;;;;;;;19.83;59.02;101757.22;5053271;28;20021;-66
2023/05/14 07:25:33;;;;;;;21.17;12.82;;;;;;;19.89;59.24;101759.84;5053315;28;20537;-67
2023/05/14 07:27:58;;;;;;;15.48;12.02;;;;;;;19.89;58.14;101757.16;5053186;28;20044;-67
2023/05/14 07:30:24;;;;;;;19.38;12.63;;;;;;;19.76;58.01;101762.66;5035161;28;20028;-66
2023/05/14 07:32:49;;;;;;;18.15;12.38;;;;;;;19.97;58.66;101765.97;5052898;28;20029;-65
2023/05/14 07:35:15;;;;;;;16.88;12.40;;;;;;;20.27;57.94;101760.19;5053007;28;20049;-65
2023/05/14 07:37:41;;;;;;;18.67;12.50;;;;;;;20.60;57.02;101760.63;5052889;28;20063;-66
2023/05/14 07:40:07;;;;;;;19.77;12.18;;;;;;;20.72;57.11;101751.44;5052908;28;20490;-67
2023/05/14 07:42:33;;;;;;;19.23;12.63;;;;;;;20.82;56.80;101758.44;5052616;28;20025;-67
2023/05/14 07:44:58;;;;;;;17.05;12.70;;;;;;;20.90;57.04;101755.66;5052865;28;20457;-67
2023/05/14 07:47:24;;;;;;;18.60;12.32;;;;;;;20.98;56.23;101759.06;5035046;28;20031;-67
2023/05/14 07:49:53;;;;;;;18.52;12.05;;;;;;;21.00;56.11;101759.94;5052887;28;20494;-66
2023/05/14 07:52:18;;;;;;;17.70;12.52;;;;;;;20.90;56.28;101755.66;5053101;28;20056;-65
2023/05/14 07:54:44;;;;;;;16.95;12.48;;;;;;;20.81;56.89;101759.34;5052703;28;20047;-66
2023/05/14 07:57:09;;;;;;;15.40;11.48;;;;;;;20.90;56.37;101748.47;5052534;28;20025;-67
2023/05/14 07:59:34;;;;;;;14.43;11.65;;;;;;;21.06;54.81;101751.75;5056684;28;20532;-67
2023/05/14 08:02:00;;;;;;;18.08;12.00;;;;;;;21.16;54.90;101745.31;5057098;28;20061;-67
2023/05/14 08:04:25;;;;;;;19.13;11.15;;;;;;;21.49;55.46;101759.03;5057039;28;20446;-67
2023/05/14 08:06:51;;;;;;;17.17;11.35;;;;;;;21.57;53.92;101754.38;5056866;28;20508;-67
2023/05/14 08:09:16;;;;;;;16.52;11.40;;;;;;;21.87;53.04;101746.59;5056884;28;20447;-66
2023/05/14 08:11:42;;;;;;;14.88;11.38;;;;;;;22.04;52.13;101754.28;5056684;28;20033;-67
2023/05/14 08:14:07;;;;;;;15.40;11.05;;;;;;;22.19;51.01;101754.88;5056557;28;20044;-67
2023/05/14 08:16:32;;;;;;;14.45;11.10;;;;;;;22.29;50.48;101751.97;5056427;28;20029;-67
2023/05/14 08:18:58;;;;;;;17.55;10.77;;;;;;;22.44;50.68;101752.50;5056435;28;20039;-67
2023/05/14 08:21:23;;;;;;;16.63;10.50;;;;;;;22.75;49.56;101747.22;5056504;28;20096;-67
2023/05/14 08:23:49;;;;;;;17.00;11.40;;;;;;;22.89;49.10;101757.63;5038674;28;20482;-66
2023/05/14 08:26:14;;;;;;;17.50;9.88;;;;;;;23.43;50.03;101748.13;5056498;28;20107;-66
2023/05/14 08:28:39;;;;;;;14.60;10.32;;;;;;;23.66;47.75;101748.38;5056388;28;20025;-66
2023/05/14 08:31:05;;;;;;;14.27;10.70;;;;;;;23.64;47.81;101763.72;5038603;28;20414;-66
2023/05/14 08:33:30;;;;;;;14.82;9.98;;;;;;;23.76;47.12;101751.69;5056309;28;20035;-66
2023/05/14 08:35:57;;;;;;;14.65;9.63;;;;;;;23.94;46.11;101751.16;5056131;28;20493;-66
2023/05/14 08:38:22;;;;;;;16.63;10.07;;;;;;;23.98;44.32;101744.72;5038378;28;20033;-67
2023/05/14 08:40:57;;;;;;;16.00;10.05;;;;;;;23.97;44.53;101739.34;5056248;28;20482;-66
2023/05/14 08:43:34;;;;;;;18.35;9.55;;;;;;;24.11;45.30;101750.63;5039622;28;20072;-67
2023/05/14 08:46:03;;;;;;;15.40;9.45;;;;;;;24.14;45.61;101739.72;5036291;28;20033;-66
2023/05/14 08:48:36;;;;;;;13.50;9.90;;;;;;;24.03;44.43;101733.78;5036353;28;20054;-66
2023/05/14 08:51:02;;;;;;;12.70;9.50;;;;;;;23.87;44.07;101727.97;5035852;28;20042;-67
2023/05/14 08:53:27;;;;;;;13.65;9.40;;;;;;;23.85;43.38;101724.41;5018217;28;20506;-67
2023/05/14 08:55:53;;;;;;;14.27;9.75;;;;;;;24.08;44.24;101737.22;5036024;28;20080;-67
2023/05/14 08:58:19;;;;;;;11.77;9.45;;;;;;;24.31;43.53;101725.69;5035777;28;20033;-66
2023/05/14 09:00:45;;;;;;;11.15;9.23;;;;;;;24.41;43.70;101720.88;5035783;28;20119;-67
2023/05/14 09:03:11;;;;;;;16.17;9.05;;;;;;;24.63;42.89;101721.06;5035863;28;20105;-67
2023/05/14 09:05:37;;;;;;;13.13;8.73;;;;;;;24.83;43.43;101715.84;5035737;28;20104;-67
2023/05/14 09:08:03;;;;;;;40.25;36.25;;;;;;;24.86;42.54;101715.75;5035465;28;20364;-67
2023/05/14 09:10:28;;;;;;;31.15;28.08;;;;;;;24.92;44.17;101707.44;5017631;28;20040;-66
2023/05/14 09:12:54;;;;;;;54.55;48.72;;;;;;;25.04;43.28;101710.63;5035382;28;20029;-66
2023/05/14 09:15:19;;;;;;;13.43;10.05;;;;;;;25.15;43.29;101706.63;5035632;28;20033;-66
2023/05/14 09:17:46;;;;;;;14.07;9.23;;;;;;;25.33;43.26;101712.31;5035729;28;20025;-66
2023/05/14 09:20:12;;;;;;;12.60;8.82;;;;;;;25.39;43.43;101707.53;5035744;28;20032;-67
2023/05/14 09:22:38;;;;;;;13.13;8.90;;;;;;;25.41;44.55;101700.25;5017830;28;20021;-66
2023/05/14 09:25:06;;;;;;;11.73;8.63;;;;;;;25.60;42.95;101703.13;5035454;28;20044;-67
2023/05/14 09:27:34;;;;;;;12.88;8.60;;;;;;;25.72;40.53;101693.66;5035344;28;20364;-67
2023/05/14 09:30:07;;;;;;;13.70;7.80;;;;;;;25.96;41.10;101705.41;5035504;28;20498;-67
2023/05/14 09:32:42;;;;;;;14.73;8.38;;;;;;;26.00;41.66;101690.81;5035232;28;20030;-67
2023/05/14 09:35:10;;;;;;;12.05;8.43;;;;;;;26.23;41.25;101698.84;5018189;28;20484;-66
2023/05/14 09:37:35;;;;;;;12.50;8.70;;;;;;;26.06;40.49;101690.53;5035123;28;20497;-66
2023/05/14 09:40:08;;;;;;;14.25;8.30;;;;;;;26.15;40.81;101690.16;5035137;28;20100;-66
2023/05/14 09:42:33;;;;;;;13.52;8.18;;;;;;;26.29;40.47;101692.28;5035158;28;20037;-67
2023/05/14 09:44:59;;;;;;;12.80;8.43;;;;;;;26.66;39.56;101690.78;5035378;28;20029;-67
2023/05/14 09:47:24;;;;;;;46.00;41.58;;;;;;;26.70;39.00;101682.47;5034957;28;20522;-66
2023/05/14 09:49:49;;;;;;;12.60;8.55;;;;;;;26.88;38.17;101682.59;5035139;28;20117;-66
2023/05/14 09:52:17;;;;;;;19.05;14.55;;;;;;;26.85;38.28;101678.22;5034752;28;20056;-67
2023/05/14 09:54:45;;;;;;;12.35;9.40;;;;;;;27.03;38.65;101681.94;5034720;28;20033;-67
2023/05/14 09:57:10;;;;;;;13.60;7.57;;;;;;;27.14;38.46;101679.63;5034628;28;20493;-66
2023/05/14 09:59:36;;;;;;;9.80;7.13;;;;;;;27.31;38.54;101680.69;5035132;28;20026;-66
2023/05/14 10:02:04;;;;;;;12.82;8.82;;;;;;;27.28;38.32;101679.03;5033933;28;20025;-66
2023/05/14 10:04:32;;;;;;;11.52;7.15;;;;;;;27.35;38.28;101675.06;5034597;28;20348;-67
2023/05/14 10:06:59;;;;;;;10.13;6.60;;;;;;;27.17;36.37;101673.19;5034677;28;20542;-66
2023/05/14 10:09:27;;;;;;;11.68;6.30;;;;;;;27.18;36.42;101673.13;5034903;28;20086;-66
2023/05/14 10:12:00;;;;;;;9.02;6.45;;;;;;;27.40;37.74;101670.28;5034567;28;20021;-66
2023/05/14 10:14:34;;;;;;;10.93;6.65;;;;;;;27.37;36.77;101678.59;5034511;28;20033;-66
2023/05/14 10:17:00;;;;;;;11.02;6.40;;;;;;;27.42;36.80;101670.25;5016692;28;20155;-66
2023/05/14 10:19:27;;;;;;;15.55;6.78;;;;;;;27.43;37.31;101664.72;5034435;28;20030;-66
2023/05/14 10:21:56;;;;;;;9.77;6.38;;;;;;;27.54;38.30;101666.09;5033657;28;20048;-66
2023/05/14 10:24:23;;;;;;;9.60;6.82;;;;;;;27.66;39.00;101673.63;5034533;28;20021;-66
2023/05/14 10:26:49;;;;;;;11.45;6.25;;;;;;;27.74;36.53;101663.31;5034174;28;20030;-67
2023/05/14 10:29:14;;;;;;;9.85;6.70;;;;;;;27.96;36.68;101665.84;5034222;28;20029;-66
2023/05/14 10:31:46;;;;;;;13.10;6.55;;;;;;;28.12;34.52;101661.44;5034131;28;20034;-65
2023/05/14 10:34:39;;;;;;;11.27;6.25;;;;;;;28.18;35.97;101655.72;5033863;28;20025;-66
2023/05/14 10:37:13;;;;;;;14.40;6.47;;;;;;;28.25;34.55;101660.81;5034221;28;20030;-66
2023/05/14 10:39:43;;;;;;;11.88;6.35;;;;;;;28.34;35.07;101654.91;5034290;28;20026;-66
2023/05/14 10:42:15;;;;;;;9.93;6.47;;;;;;;28.55;35.63;101652.97;5033709;28;20040;-66
2023/05/14 10:44:47;;;;;;;14.07;6.90;;;;;;;28.66;35.82;101656.03;5033492;28;20130;-66
2023/05/14 10:47:15;;;;;;;10.35;6.95;;;;;;;28.68;34.02;101648.66;5042739;28;20533;-65
2023/05/14 10:49:44;;;;;;;10.57;6.30;;;;;;;28.87;34.15;101646.75;5043368;28;20025;-65
2023/05/14 10:52:11;;;;;;;10.32;6.28;;;;;;;28.93;34.58;101637.34;5037879;28;20107;-65
2023/05/14 10:54:37;;;;;;;8.43;5.60;;;;;;;29.08;33.25;101642.03;5035863;28;20038;-67
2023/05/14 10:57:02;;;;;;;11.02;6.47;;;;;;;28.99;33.70;101639.75;5038612;28;20067;-64
2023/05/14 10:59:34;;;;;;;10.18;5.85;;;;;;;29.08;33.72;101644.75;5042577;28;20025;-65
2023/05/14 11:02:00;;;;;;;11.48;5.80;;;;;;;29.13;32.95;101639.03;5043690;28;20037;-65
2023/05/14 11:04:27;;;;;;;10.00;5.72;;;;;;;29.16;31.53;101637.03;5032865;28;20037;-66
2023/05/14 11:06:52;;;;;;;8.50;5.20;;;;;;;29.33;30.54;101630.63;5033681;28;20029;-66
2023/05/14 11:09:20;;;;;;;8.48;5.65;;;;;;;29.46;30.83;101633.56;5033466;28;20499;-67